createdAt,value
2023-03-06T00:01:09.771Z,13.73
2023-03-06T00:03:41.137Z,12.20
2023-03-06T00:06:15.532Z,17.20
2023-03-06T00:08:42.158Z,14.60
2023-03-06T00:11:15.580Z,16.13
2023-03-06T00:13:44.620Z,11.77
2023-03-06T00:16:13.685Z,15.50
2023-03-06T00:18:40.409Z,9.80
2023-03-06T00:21:08.194Z,12.10
2023-03-06T00:23:34.852Z,13.93
2023-03-06T00:26:01.490Z,13.17
2023-03-06T00:28:31.059Z,14.60
2023-03-06T00:31:00.538Z,14.27
2023-03-06T00:33:31.237Z,10.47
2023-03-06T00:36:04.805Z,11.17
2023-03-06T00:38:33.524Z,16.20
2023-03-06T00:41:00.148Z,15.60
2023-03-06T00:43:32.698Z,14.43
2023-03-06T00:45:59.381Z,12.23
2023-03-06T00:48:28.489Z,13.07
2023-03-06T00:50:55.233Z,13.07
2023-03-06T00:53:28.964Z,12.47
2023-03-06T00:55:58.786Z,12.53
2023-03-06T00:58:30.602Z,13.23
2023-03-06T01:00:57.271Z,15.77
2023-03-06T01:03:26.224Z,12.73
2023-03-06T01:05:52.857Z,13.63
2023-03-06T01:08:21.856Z,15.67
2023-03-06T01:10:48.479Z,12.57
2023-03-06T01:13:16.090Z,12.03
2023-03-06T01:15:47.579Z,10.30
2023-03-06T01:18:21.663Z,13.77
2023-03-06T01:20:53.884Z,15.07
2023-03-06T01:23:23.018Z,15.43
2023-03-06T01:25:49.614Z,13.30
2023-03-06T01:28:22.322Z,13.27
2023-03-06T01:30:54.349Z,15.53
2023-03-06T01:33:21.010Z,15.63
2023-03-06T01:35:47.753Z,14.77
2023-03-06T01:38:16.659Z,18.67
2023-03-06T01:40:48.690Z,12.73
2023-03-06T01:43:26.847Z,17.70
2023-03-06T01:46:30.846Z,17.20
2023-03-06T01:49:02.336Z,15.17
2023-03-06T01:51:33.513Z,14.30
2023-03-06T01:54:08.828Z,14.97
2023-03-06T01:56:40.972Z,14.40
2023-03-06T01:59:13.072Z,13.67
2023-03-06T02:01:46.677Z,17.00
2023-03-06T02:04:16.899Z,14.27
2023-03-06T02:06:47.602Z,17.33
2023-03-06T02:09:17.044Z,17.67
2023-03-06T02:11:46.456Z,14.00
2023-03-06T02:14:18.320Z,17.80
2023-03-06T02:16:50.678Z,13.90
2023-03-06T02:19:42.821Z,15.40
2023-03-06T02:22:14.490Z,17.50
2023-03-06T02:25:00.713Z,13.47
2023-03-06T02:27:32.940Z,15.20
2023-03-06T02:29:59.673Z,16.33
2023-03-06T02:32:29.279Z,18.80
2023-03-06T02:35:00.038Z,17.57
2023-03-06T02:37:30.394Z,17.17
2023-03-06T02:40:08.333Z,15.37
2023-03-06T02:42:35.370Z,13.07
2023-03-06T02:45:03.586Z,14.60
2023-03-06T02:47:35.508Z,16.73
2023-03-06T02:50:02.279Z,16.07
2023-03-06T02:52:31.247Z,19.97
2023-03-06T02:55:00.246Z,25.50
2023-03-06T02:57:26.890Z,18.87
2023-03-06T03:00:00.922Z,16.67
2023-03-06T03:02:27.729Z,15.30
2023-03-06T03:05:00.325Z,18.50
2023-03-06T03:07:26.979Z,15.60
2023-03-06T03:09:55.901Z,17.80
2023-03-06T03:12:25.395Z,18.47
2023-03-06T03:14:52.006Z,19.13
2023-03-06T03:17:21.012Z,13.57
2023-03-06T03:19:51.601Z,14.47
2023-03-06T03:22:23.061Z,18.00
2023-03-06T03:24:50.185Z,19.70
2023-03-06T03:27:21.346Z,14.30
2023-03-06T03:29:50.754Z,15.50
2023-03-06T03:32:18.713Z,13.27
2023-03-06T03:34:50.232Z,13.93
2023-03-06T03:37:20.351Z,15.27
2023-03-06T03:39:53.280Z,16.80
2023-03-06T03:42:22.662Z,16.50
2023-03-06T03:44:53.709Z,16.60
2023-03-06T03:47:24.068Z,13.37
2023-03-06T03:49:56.221Z,15.90
2023-03-06T03:52:24.208Z,14.83
2023-03-06T03:54:55.750Z,17.17
2023-03-06T03:57:22.629Z,18.73
2023-03-06T03:59:59.214Z,14.00
2023-03-06T04:02:40.786Z,15.33
2023-03-06T04:05:22.603Z,18.70
2023-03-06T04:07:55.122Z,15.10
2023-03-06T04:10:26.402Z,20.80
2023-03-06T04:12:54.047Z,16.53
2023-03-06T04:15:20.926Z,17.97
2023-03-06T04:17:49.377Z,18.10
2023-03-06T04:20:27.965Z,16.07
2023-03-06T04:22:58.183Z,19.57
2023-03-06T04:25:27.216Z,16.43
2023-03-06T04:27:58.746Z,15.40
2023-03-06T04:30:25.803Z,14.70
2023-03-06T04:32:54.764Z,15.97
2023-03-06T04:35:24.202Z,16.83
2023-03-06T04:38:04.376Z,16.60
2023-03-06T04:40:34.753Z,20.00
2023-03-06T04:43:04.879Z,16.17
2023-03-06T04:45:32.567Z,18.63
2023-03-06T04:48:04.021Z,13.13
2023-03-06T04:50:33.438Z,13.30
2023-03-06T04:53:05.497Z,19.53
2023-03-06T04:55:35.012Z,17.23
2023-03-06T04:58:04.381Z,17.53
2023-03-06T05:00:33.354Z,14.17
2023-03-06T05:03:02.716Z,15.70
2023-03-06T05:05:29.600Z,16.90
2023-03-06T05:07:56.432Z,10.90
2023-03-06T05:10:25.913Z,15.97
2023-03-06T05:12:52.543Z,26.17
2023-03-06T05:15:21.428Z,16.40
2023-03-06T05:17:48.144Z,16.87
2023-03-06T05:20:15.665Z,14.07
2023-03-06T05:22:45.010Z,15.80
2023-03-06T05:25:14.105Z,17.43
2023-03-06T05:27:45.825Z,14.30
2023-03-06T05:30:16.160Z,14.93
2023-03-06T05:32:45.235Z,11.20
2023-03-06T05:35:20.957Z,21.10
2023-03-06T05:37:50.589Z,16.13
2023-03-06T05:40:18.892Z,15.10
2023-03-06T05:42:48.017Z,25.00
2023-03-06T05:45:17.157Z,23.27
2023-03-06T05:47:46.322Z,46.43
2023-03-06T05:50:20.199Z,23.37
2023-03-06T05:52:54.600Z,19.47
2023-03-06T05:55:21.856Z,20.77
2023-03-06T05:57:50.908Z,19.30
2023-03-06T06:00:20.774Z,15.57
2023-03-06T06:02:54.621Z,17.00
2023-03-06T06:05:21.317Z,18.30
2023-03-06T06:07:52.880Z,19.00
2023-03-06T06:10:21.844Z,15.80
2023-03-06T06:12:48.452Z,16.40
2023-03-06T06:15:20.050Z,17.57
2023-03-06T06:17:51.492Z,18.07
2023-03-06T06:20:20.798Z,17.60
2023-03-06T06:22:47.409Z,16.77
2023-03-06T06:25:14.313Z,16.20
2023-03-06T06:27:43.546Z,22.00
2023-03-06T06:30:13.263Z,16.93
2023-03-06T06:32:44.757Z,15.67
2023-03-06T06:35:16.664Z,15.37
2023-03-06T06:37:45.831Z,15.60
2023-03-06T06:40:15.159Z,14.93
2023-03-06T06:42:41.913Z,21.60
2023-03-06T06:45:11.715Z,17.53
2023-03-06T06:47:41.794Z,14.10
2023-03-06T06:50:17.264Z,15.57
2023-03-06T06:52:48.684Z,24.03
2023-03-06T06:55:15.320Z,16.37
2023-03-06T06:57:44.316Z,16.43
2023-03-06T07:00:15.124Z,15.80
2023-03-06T07:02:44.264Z,18.63
2023-03-06T07:05:13.260Z,18.20
2023-03-06T07:07:44.989Z,18.40
2023-03-06T07:10:19.941Z,20.40
2023-03-06T07:12:47.464Z,17.30
2023-03-06T07:15:15.552Z,20.73
2023-03-06T07:17:49.830Z,20.83
2023-03-06T07:20:23.037Z,16.23
2023-03-06T07:22:52.071Z,17.80
2023-03-06T07:25:25.473Z,19.40
2023-03-06T07:27:57.660Z,17.47
2023-03-06T07:30:29.335Z,18.03
2023-03-06T07:33:00.084Z,16.33
2023-03-06T07:35:31.514Z,20.83
2023-03-06T07:38:00.764Z,16.80
2023-03-06T07:40:29.725Z,20.17
2023-03-06T07:43:13.014Z,19.30
2023-03-06T07:45:56.575Z,17.80
2023-03-06T07:48:23.208Z,16.43
2023-03-06T07:50:58.458Z,17.57
2023-03-06T07:53:26.030Z,20.70
2023-03-06T07:55:53.105Z,21.90
2023-03-06T07:58:22.111Z,20.10
2023-03-06T08:00:51.071Z,18.07
2023-03-06T08:03:24.753Z,15.63
2023-03-06T08:06:04.229Z,14.63
2023-03-06T08:08:30.842Z,19.70
2023-03-06T08:10:57.511Z,15.90
2023-03-06T08:13:26.154Z,16.30
2023-03-06T08:15:56.318Z,20.43
2023-03-06T08:18:25.384Z,18.70
2023-03-06T08:21:01.803Z,14.30
2023-03-06T08:23:28.541Z,14.40
2023-03-06T08:26:01.558Z,17.70
2023-03-06T08:28:33.906Z,25.00
2023-03-06T08:31:11.698Z,17.03
2023-03-06T08:33:44.270Z,17.00
2023-03-06T08:36:13.198Z,18.90
2023-03-06T08:38:42.540Z,27.50
2023-03-06T08:41:11.509Z,17.83
2023-03-06T08:43:40.560Z,16.30
2023-03-06T08:46:14.778Z,29.90
2023-03-06T08:48:47.774Z,17.90
2023-03-06T08:51:16.778Z,26.40
2023-03-06T08:53:46.228Z,20.40
2023-03-06T08:56:20.487Z,17.87
2023-03-06T08:58:50.908Z,17.07
2023-03-06T09:01:27.769Z,15.07
2023-03-06T09:04:02.253Z,17.53
2023-03-06T09:06:32.542Z,17.80
2023-03-06T09:08:59.782Z,24.20
2023-03-06T09:11:27.280Z,18.13
2023-03-06T09:13:57.054Z,14.87
2023-03-06T09:16:24.462Z,19.10
2023-03-06T09:18:54.133Z,15.57
2023-03-06T09:21:22.269Z,18.00
2023-03-06T09:23:54.054Z,15.17
2023-03-06T09:26:43.284Z,21.87
2023-03-06T09:29:12.684Z,19.27
2023-03-06T09:31:43.963Z,19.77
2023-03-06T09:34:13.153Z,12.07
2023-03-06T09:36:56.615Z,16.87
2023-03-06T09:39:28.092Z,19.13
2023-03-06T09:41:58.517Z,25.90
2023-03-06T09:44:34.544Z,20.00
2023-03-06T09:47:24.900Z,16.00
2023-03-06T09:50:12.710Z,21.13
2023-03-06T09:53:15.409Z,16.63
2023-03-06T09:55:51.711Z,18.47
2023-03-06T09:58:25.154Z,16.33
2023-03-06T10:01:01.066Z,15.03
2023-03-06T10:03:32.334Z,18.40
2023-03-06T10:06:06.845Z,19.40
2023-03-06T10:08:45.809Z,17.63
2023-03-06T10:11:22.309Z,18.93
2023-03-06T10:13:54.204Z,15.90
2023-03-06T10:16:31.166Z,16.77
2023-03-06T10:19:03.591Z,15.47
2023-03-06T10:21:55.311Z,15.00
2023-03-06T10:24:46.898Z,15.00
2023-03-06T10:27:40.704Z,14.23
2023-03-06T10:30:32.805Z,15.40
2023-03-06T10:33:01.880Z,15.20
2023-03-06T10:35:42.323Z,16.03
2023-03-06T10:38:37.501Z,15.17
2023-03-06T10:41:15.450Z,14.70
2023-03-06T10:44:04.779Z,14.17
2023-03-06T10:46:41.847Z,15.07
2023-03-06T10:49:30.086Z,20.90
2023-03-06T10:52:07.719Z,15.83
2023-03-06T10:54:43.080Z,15.83
2023-03-06T10:57:29.680Z,13.20
2023-03-06T11:00:01.250Z,15.70
2023-03-06T11:02:34.028Z,15.93
2023-03-06T11:05:09.391Z,14.50
2023-03-06T11:07:52.911Z,15.93
2023-03-06T11:10:20.558Z,16.63
2023-03-06T11:12:58.736Z,16.60
2023-03-06T11:15:27.386Z,18.47
2023-03-06T11:17:56.604Z,18.53
2023-03-06T11:20:48.606Z,14.97
2023-03-06T11:23:31.476Z,13.53
2023-03-06T11:26:02.594Z,15.10
2023-03-06T11:28:37.342Z,16.47
2023-03-06T11:31:10.530Z,16.40
2023-03-06T11:33:52.944Z,16.97
2023-03-06T11:36:29.288Z,17.87
2023-03-06T11:38:56.460Z,14.60
2023-03-06T11:41:57.867Z,15.50
2023-03-06T11:44:54.067Z,14.43
2023-03-06T11:47:32.036Z,13.87
2023-03-06T11:50:20.300Z,14.07
2023-03-06T11:53:00.412Z,14.27
2023-03-06T11:56:00.071Z,15.20
2023-03-06T11:59:07.782Z,14.07
2023-03-06T12:01:41.268Z,21.57
2023-03-06T12:04:19.256Z,20.43
2023-03-06T12:07:10.359Z,13.37
2023-03-06T12:09:56.808Z,14.77
2023-03-06T12:12:45.823Z,16.90
2023-03-06T12:15:14.716Z,15.97
2023-03-06T12:17:55.153Z,14.70
2023-03-06T12:20:58.778Z,14.00
2023-03-06T12:23:37.593Z,15.57
2023-03-06T12:26:22.292Z,12.57
2023-03-06T12:29:06.442Z,14.57
2023-03-06T12:32:10.234Z,12.67
2023-03-06T12:34:57.688Z,14.90
2023-03-06T12:37:49.379Z,11.27
2023-03-06T12:40:23.585Z,13.43
2023-03-06T12:43:10.808Z,12.40
2023-03-06T12:45:40.944Z,15.67
2023-03-06T12:48:18.533Z,13.60
2023-03-06T12:50:46.049Z,17.90
2023-03-06T12:53:23.576Z,15.10
2023-03-06T12:55:51.002Z,15.83
2023-03-06T12:58:32.515Z,24.83
2023-03-06T13:01:20.031Z,15.70
2023-03-06T13:04:07.092Z,16.47
2023-03-06T13:06:54.213Z,17.50
2023-03-06T13:09:42.214Z,16.47
2023-03-06T13:12:28.938Z,12.40
2023-03-06T13:14:58.373Z,23.17
2023-03-06T13:17:34.485Z,20.80
2023-03-06T13:20:26.974Z,21.83
2023-03-06T13:22:56.734Z,16.87
2023-03-06T13:25:28.939Z,20.33
2023-03-06T13:27:57.695Z,19.63
2023-03-06T13:30:36.677Z,12.77
2023-03-06T13:33:32.427Z,12.47
2023-03-06T13:36:28.693Z,11.83
2023-03-06T13:39:16.473Z,12.50
2023-03-06T13:41:59.058Z,11.80
2023-03-06T13:44:28.352Z,14.73
2023-03-06T13:47:27.487Z,11.07
2023-03-06T13:49:54.187Z,9.80
2023-03-06T13:52:46.071Z,10.43
2023-03-06T13:55:12.648Z,11.50
2023-03-06T13:57:47.692Z,13.67
2023-03-06T14:00:22.274Z,12.80
2023-03-06T14:03:16.276Z,14.67
2023-03-06T14:05:50.988Z,11.80
2023-03-06T14:08:19.932Z,10.90
2023-03-06T14:11:06.803Z,14.07
2023-03-06T14:13:47.089Z,13.50
2023-03-06T14:16:22.154Z,12.57
2023-03-06T14:18:53.891Z,17.73
2023-03-06T14:21:47.550Z,16.60
2023-03-06T14:24:17.106Z,12.67
2023-03-06T14:26:51.304Z,13.37
2023-03-06T14:29:28.269Z,13.67
2023-03-06T14:32:02.420Z,13.73
2023-03-06T14:34:45.867Z,11.10
2023-03-06T14:37:22.020Z,13.53
2023-03-06T14:39:56.125Z,12.43
2023-03-06T14:42:25.293Z,19.10
2023-03-06T14:45:24.864Z,13.83
2023-03-06T14:47:53.052Z,12.50
2023-03-06T14:50:30.016Z,19.50
2023-03-06T14:52:57.722Z,16.33
2023-03-06T14:55:30.209Z,15.60
2023-03-06T14:58:02.145Z,14.67
2023-03-06T15:00:38.634Z,18.23
2023-03-06T15:03:12.817Z,19.73
2023-03-06T15:05:48.995Z,17.17
2023-03-06T15:08:25.399Z,14.80
2023-03-06T15:11:01.083Z,17.80
2023-03-06T15:13:29.863Z,12.83
2023-03-06T15:16:06.747Z,10.73
2023-03-06T15:18:55.190Z,13.40
2023-03-06T15:21:24.169Z,16.30
2023-03-06T15:23:56.049Z,12.47
2023-03-06T15:26:25.919Z,12.50
2023-03-06T15:29:10.013Z,12.67
2023-03-06T15:31:42.664Z,18.97
2023-03-06T15:34:09.313Z,12.93
2023-03-06T15:36:44.487Z,11.50
2023-03-06T15:39:32.498Z,11.13
2023-03-06T15:42:18.254Z,12.90
2023-03-06T15:44:54.014Z,13.80
2023-03-06T15:47:21.909Z,11.03
2023-03-06T15:49:52.142Z,11.97
2023-03-06T15:52:20.294Z,13.10
2023-03-06T15:54:51.780Z,13.47
2023-03-06T15:57:29.394Z,12.60
2023-03-06T15:59:57.388Z,10.93
2023-03-06T16:02:27.571Z,12.60
2023-03-06T16:04:54.277Z,16.23
2023-03-06T16:07:21.301Z,13.10
2023-03-06T16:09:48.280Z,12.57
2023-03-06T16:12:22.703Z,10.67
2023-03-06T16:14:55.181Z,9.67
2023-03-06T16:17:24.183Z,9.67
2023-03-06T16:19:53.097Z,9.27
2023-03-06T16:22:24.686Z,8.63
2023-03-06T16:24:54.010Z,14.90
2023-03-06T16:27:28.260Z,9.90
2023-03-06T16:29:59.841Z,8.40
2023-03-06T16:32:28.702Z,9.73
2023-03-06T16:34:55.497Z,8.03
2023-03-06T16:37:24.592Z,9.50
2023-03-06T16:39:53.511Z,8.10
2023-03-06T16:42:23.273Z,10.80
2023-03-06T16:44:52.184Z,7.90
2023-03-06T16:47:18.819Z,9.47
2023-03-06T16:49:52.046Z,12.67
2023-03-06T16:52:21.097Z,8.03
2023-03-06T16:54:52.915Z,6.30
2023-03-06T16:57:21.905Z,7.70
2023-03-06T16:59:51.500Z,8.47
2023-03-06T17:02:23.470Z,10.20
2023-03-06T17:04:57.624Z,10.07
2023-03-06T17:07:26.982Z,7.43
2023-03-06T17:09:58.527Z,6.87
2023-03-06T17:12:25.255Z,8.80
2023-03-06T17:14:54.789Z,7.77
2023-03-06T17:17:23.688Z,8.30
2023-03-06T17:19:53.140Z,11.37
2023-03-06T17:22:25.274Z,9.60
2023-03-06T17:24:54.946Z,7.57
2023-03-06T17:27:22.771Z,10.40
2023-03-06T17:29:49.507Z,8.80
2023-03-06T17:32:20.721Z,11.30
2023-03-06T17:34:47.558Z,11.07
2023-03-06T17:37:16.763Z,8.30
2023-03-06T17:39:45.984Z,10.83
2023-03-06T17:42:17.254Z,7.77
2023-03-06T17:44:47.989Z,7.20
2023-03-06T17:47:14.846Z,6.97
2023-03-06T17:49:43.873Z,7.07
2023-03-06T17:52:11.169Z,9.30
2023-03-06T17:54:42.620Z,6.57
2023-03-06T17:57:12.341Z,8.33
2023-03-06T17:59:39.228Z,8.30
2023-03-06T18:02:06.450Z,11.90
2023-03-06T18:04:33.317Z,11.57
2023-03-06T18:07:04.608Z,6.80
2023-03-06T18:09:31.264Z,7.97
2023-03-06T18:12:02.890Z,9.43
2023-03-06T18:14:32.013Z,8.77
2023-03-06T18:16:58.766Z,8.10
2023-03-06T18:19:27.804Z,9.70
2023-03-06T18:21:56.663Z,9.77
2023-03-06T18:24:23.553Z,10.10
2023-03-06T18:26:52.532Z,10.37
2023-03-06T18:29:21.722Z,10.17
2023-03-06T18:31:50.453Z,7.93
2023-03-06T18:34:22.846Z,10.73
2023-03-06T18:36:51.675Z,8.40
2023-03-06T18:39:19.264Z,9.30
2023-03-06T18:41:51.814Z,9.27
2023-03-06T18:44:19.021Z,10.77
2023-03-06T18:46:48.028Z,10.40
2023-03-06T18:49:17.505Z,9.13
2023-03-06T18:51:44.407Z,9.53
2023-03-06T18:54:11.752Z,9.97
2023-03-06T18:56:44.182Z,10.03
2023-03-06T18:59:18.901Z,9.33
2023-03-06T19:01:51.924Z,10.87
2023-03-06T19:04:21.253Z,8.83
2023-03-06T19:06:51.452Z,9.17
2023-03-06T19:09:20.622Z,16.20
2023-03-06T19:11:49.692Z,8.60
2023-03-06T19:14:18.822Z,10.73
2023-03-06T19:16:50.104Z,12.40
2023-03-06T19:19:21.386Z,10.70
2023-03-06T19:21:50.374Z,13.57
2023-03-06T19:24:21.690Z,12.40
2023-03-06T19:26:48.511Z,12.80
2023-03-06T19:29:17.614Z,9.53
2023-03-06T19:31:44.614Z,12.13
2023-03-06T19:34:11.333Z,12.27
2023-03-06T19:36:40.645Z,12.33
2023-03-06T19:39:11.170Z,9.93
2023-03-06T19:41:37.832Z,9.60
2023-03-06T19:44:06.013Z,10.17
2023-03-06T19:46:37.749Z,10.20
2023-03-06T19:49:11.853Z,8.87
2023-03-06T19:51:38.760Z,14.70
2023-03-06T19:54:05.494Z,10.60
2023-03-06T19:56:33.811Z,8.93
2023-03-06T19:59:02.948Z,10.50
2023-03-06T20:01:33.780Z,9.53
2023-03-06T20:04:00.634Z,8.87
2023-03-06T20:06:39.024Z,11.10
2023-03-06T20:09:11.289Z,11.87
2023-03-06T20:11:40.453Z,11.50
2023-03-06T20:14:10.543Z,12.90
2023-03-06T20:16:37.872Z,11.93
2023-03-06T20:19:05.604Z,11.37
2023-03-06T20:21:37.654Z,12.70
2023-03-06T20:24:08.420Z,9.87
2023-03-06T20:26:37.691Z,11.73
2023-03-06T20:29:09.586Z,12.27
2023-03-06T20:31:40.809Z,12.13
2023-03-06T20:34:13.816Z,12.17
2023-03-06T20:36:43.196Z,12.50
2023-03-06T20:39:14.642Z,9.73
2023-03-06T20:41:44.246Z,9.50
2023-03-06T20:44:15.399Z,8.70
2023-03-06T20:46:44.947Z,13.30
2023-03-06T20:49:16.680Z,10.90
2023-03-06T20:51:45.967Z,9.30
2023-03-06T20:54:14.916Z,11.07
2023-03-06T20:56:44.881Z,13.40
2023-03-06T20:59:14.672Z,10.77
2023-03-06T21:01:43.638Z,13.63
2023-03-06T21:04:13.973Z,12.40
2023-03-06T21:06:44.158Z,13.73
2023-03-06T21:09:10.928Z,13.07
2023-03-06T21:11:37.747Z,13.40
2023-03-06T21:14:04.716Z,12.33
2023-03-06T21:16:31.818Z,11.23
2023-03-06T21:19:01.696Z,13.10
2023-03-06T21:21:35.984Z,11.97
2023-03-06T21:24:05.320Z,14.00
2023-03-06T21:26:35.963Z,16.40
2023-03-06T21:29:05.662Z,10.10
2023-03-06T21:31:33.526Z,10.80
2023-03-06T21:34:01.259Z,9.83
2023-03-06T21:36:33.725Z,13.10
2023-03-06T21:39:06.417Z,11.63
2023-03-06T21:41:35.980Z,10.37
2023-03-06T21:44:05.308Z,14.63
2023-03-06T21:46:32.810Z,10.47
2023-03-06T21:49:04.185Z,11.90
2023-03-06T21:51:36.248Z,10.53
2023-03-06T21:54:13.109Z,14.10
2023-03-06T21:56:39.947Z,10.97
2023-03-06T21:59:06.645Z,10.27
2023-03-06T22:01:37.690Z,9.67
2023-03-06T22:04:06.769Z,11.13
2023-03-06T22:06:33.499Z,9.60
2023-03-06T22:09:01.191Z,10.10
2023-03-06T22:11:36.992Z,11.00
2023-03-06T22:14:06.629Z,9.80
2023-03-06T22:16:38.122Z,9.00
2023-03-06T22:19:09.884Z,9.77
2023-03-06T22:21:41.384Z,9.00
2023-03-06T22:24:15.368Z,9.80
2023-03-06T22:26:44.286Z,10.07
2023-03-06T22:29:15.884Z,8.90
2023-03-06T22:31:42.659Z,11.37
2023-03-06T22:34:11.948Z,10.60
2023-03-06T22:36:38.616Z,11.57
2023-03-06T22:39:10.194Z,11.20
2023-03-06T22:41:42.470Z,10.33
2023-03-06T22:44:19.531Z,11.63
2023-03-06T22:46:48.997Z,15.93
2023-03-06T22:49:16.964Z,12.00
2023-03-06T22:51:44.975Z,10.13
2023-03-06T22:54:11.935Z,10.40
2023-03-06T22:56:38.720Z,9.03
2023-03-06T22:59:06.529Z,10.50
2023-03-06T23:01:35.578Z,12.13
2023-03-06T23:04:04.005Z,12.43
2023-03-06T23:06:39.986Z,14.80
2023-03-06T23:09:08.494Z,13.57
2023-03-06T23:11:53.557Z,14.80
2023-03-06T23:14:39.255Z,11.93
2023-03-06T23:17:25.017Z,14.00
2023-03-06T23:20:12.057Z,15.80
2023-03-06T23:22:57.582Z,14.30
2023-03-06T23:25:43.878Z,13.07
2023-03-06T23:28:11.112Z,17.60
2023-03-06T23:30:39.413Z,15.20
2023-03-06T23:33:06.834Z,12.80
2023-03-06T23:35:39.231Z,13.83
2023-03-06T23:38:06.558Z,12.13
2023-03-06T23:40:34.612Z,18.57
2023-03-06T23:43:04.765Z,13.17
2023-03-06T23:45:32.195Z,12.57
2023-03-06T23:47:59.243Z,13.03
2023-03-06T23:50:26.365Z,14.97
2023-03-06T23:52:54.327Z,13.90
2023-03-06T23:55:23.464Z,13.03
2023-03-06T23:57:52.660Z,15.80
